sensor_id;sensor_type;location;lat;lon;timestamp;P1;durP1;ratioP1;P2;durP2;ratioP2
84860;SDS011;75116;42.644;23.274;2024-01-06T14:05:44;18.45;;;8.82;;
84860;SDS011;75116;42.644;23.274;2024-01-06T14:08:10;20.23;;;9.50;;
84860;SDS011;75116;42.644;23.274;2024-01-06T14:10:35;16.40;;;10.38;;
84860;SDS011;75116;42.644;23.274;2024-01-06T14:13:03;21.08;;;10.43;;
84860;SDS011;75116;42.644;23.274;2024-01-06T14:15:29;19.25;;;10.23;;
84860;SDS011;75116;42.644;23.274;2024-01-06T14:17:56;23.50;;;12.85;;
84860;SDS011;75116;42.644;23.274;2024-01-06T14:20:21;17.10;;;9.65;;
84860;SDS011;75116;42.644;23.274;2024-01-06T14:22:47;22.58;;;11.15;;
84860;SDS011;75116;42.644;23.274;2024-01-06T14:25:14;20.27;;;9.88;;
84860;SDS011;75116;42.644;23.274;2024-01-06T14:27:43;18.77;;;10.23;;
84860;SDS011;75116;42.644;23.274;2024-01-06T14:30:10;13.00;;;7.53;;
84860;SDS011;75116;42.644;23.274;2024-01-06T14:32:36;13.98;;;6.65;;
84860;SDS011;75116;42.644;23.274;2024-01-06T14:35:05;13.95;;;8.10;;
84860;SDS011;75116;42.644;23.274;2024-01-06T14:37:31;12.50;;;6.97;;
84860;SDS011;75116;42.644;23.274;2024-01-06T14:40:03;8.70;;;6.07;;
84860;SDS011;75116;42.644;23.274;2024-01-06T14:42:33;12.70;;;6.00;;
84860;SDS011;75116;42.644;23.274;2024-01-06T14:45:01;14.80;;;5.55;;
84860;SDS011;75116;42.644;23.274;2024-01-06T14:47:26;8.57;;;3.90;;
84860;SDS011;75116;42.644;23.274;2024-01-06T14:49:52;9.80;;;4.35;;
84860;SDS011;75116;42.644;23.274;2024-01-06T14:52:20;10.35;;;5.40;;
84860;SDS011;75116;42.644;23.274;2024-01-06T14:54:48;9.02;;;4.53;;
84860;SDS011;75116;42.644;23.274;2024-01-06T14:57:14;11.10;;;6.07;;
84860;SDS011;75116;42.644;23.274;2024-01-06T14:59:40;10.80;;;5.47;;
84860;SDS011;75116;42.644;23.274;2024-01-06T15:02:06;12.25;;;5.63;;
84860;SDS011;75116;42.644;23.274;2024-01-06T15:04:32;9.98;;;5.40;;
84860;SDS011;75116;42.644;23.274;2024-01-06T15:06:58;10.23;;;4.40;;
84860;SDS011;75116;42.644;23.274;2024-01-06T15:09:24;7.22;;;4.10;;
84860;SDS011;75116;42.644;23.274;2024-01-06T15:11:51;8.88;;;5.88;;
84860;SDS011;75116;42.644;23.274;2024-01-06T15:14:17;13.77;;;6.55;;
84860;SDS011;75116;42.644;23.274;2024-01-06T15:16:42;6.22;;;4.70;;
84860;SDS011;75116;42.644;23.274;2024-01-06T15:19:08;8.57;;;4.53;;
84860;SDS011;75116;42.644;23.274;2024-01-06T15:21:34;5.80;;;3.78;;
84860;SDS011;75116;42.644;23.274;2024-01-06T15:24:02;5.70;;;3.40;;
84860;SDS011;75116;42.644;23.274;2024-01-06T15:26:30;6.88;;;3.88;;
84860;SDS011;75116;42.644;23.274;2024-01-06T15:28:55;7.05;;;4.85;;
84860;SDS011;75116;42.644;23.274;2024-01-06T15:31:23;6.03;;;3.90;;
84860;SDS011;75116;42.644;23.274;2024-01-06T15:33:49;11.65;;;5.68;;
84860;SDS011;75116;42.644;23.274;2024-01-06T15:36:15;7.40;;;4.60;;
84860;SDS011;75116;42.644;23.274;2024-01-06T15:38:40;5.72;;;4.28;;
84860;SDS011;75116;42.644;23.274;2024-01-06T15:41:06;8.90;;;4.68;;
84860;SDS011;75116;42.644;23.274;2024-01-06T15:43:32;6.50;;;3.88;;
84860;SDS011;75116;42.644;23.274;2024-01-06T15:45:57;8.32;;;4.35;;
84860;SDS011;75116;42.644;23.274;2024-01-06T15:48:23;20.60;;;10.23;;
84860;SDS011;75116;42.644;23.274;2024-01-06T15:50:48;16.25;;;9.32;;
84860;SDS011;75116;42.644;23.274;2024-01-06T15:53:17;11.73;;;7.30;;
84860;SDS011;75116;42.644;23.274;2024-01-06T15:55:43;9.30;;;4.85;;
84860;SDS011;75116;42.644;23.274;2024-01-06T15:58:08;10.95;;;6.28;;
84860;SDS011;75116;42.644;23.274;2024-01-06T16:00:34;13.48;;;6.25;;
84860;SDS011;75116;42.644;23.274;2024-01-06T16:02:59;10.07;;;6.00;;
84860;SDS011;75116;42.644;23.274;2024-01-06T16:05:25;6.70;;;4.78;;
84860;SDS011;75116;42.644;23.274;2024-01-06T16:07:51;9.02;;;4.95;;
84860;SDS011;75116;42.644;23.274;2024-01-06T16:10:18;6.47;;;3.22;;
84860;SDS011;75116;42.644;23.274;2024-01-06T16:12:46;8.70;;;5.63;;
84860;SDS011;75116;42.644;23.274;2024-01-06T16:15:12;5.00;;;3.40;;
84860;SDS011;75116;42.644;23.274;2024-01-06T16:17:38;6.43;;;3.67;;
84860;SDS011;75116;42.644;23.274;2024-01-06T16:20:05;9.02;;;5.15;;
84860;SDS011;75116;42.644;23.274;2024-01-06T16:22:32;4.57;;;2.88;;
84860;SDS011;75116;42.644;23.274;2024-01-06T16:24:58;6.15;;;2.90;;
84860;SDS011;75116;42.644;23.274;2024-01-06T16:27:24;9.75;;;5.70;;
84860;SDS011;75116;42.644;23.274;2024-01-06T16:29:49;4.13;;;3.25;;
84860;SDS011;75116;42.644;23.274;2024-01-06T16:32:15;11.93;;;6.90;;
84860;SDS011;75116;42.644;23.274;2024-01-06T16:34:42;6.60;;;3.90;;
84860;SDS011;75116;42.644;23.274;2024-01-06T16:37:08;6.40;;;4.20;;
84860;SDS011;75116;42.644;23.274;2024-01-06T16:39:34;7.95;;;4.20;;
84860;SDS011;75116;42.644;23.274;2024-01-06T16:41:59;7.90;;;4.70;;
84860;SDS011;75116;42.644;23.274;2024-01-06T16:44:25;6.60;;;3.30;;
84860;SDS011;75116;42.644;23.274;2024-01-06T16:46:51;6.75;;;4.70;;
84860;SDS011;75116;42.644;23.274;2024-01-06T16:49:16;8.60;;;5.90;;
84860;SDS011;75116;42.644;23.274;2024-01-06T16:51:42;5.20;;;3.67;;
84860;SDS011;75116;42.644;23.274;2024-01-06T16:54:07;6.38;;;4.32;;
84860;SDS011;75116;42.644;23.274;2024-01-06T16:56:33;38.22;;;19.55;;
84860;SDS011;75116;42.644;23.274;2024-01-06T16:58:58;8.13;;;4.68;;
84860;SDS011;75116;42.644;23.274;2024-01-06T17:01:24;10.63;;;5.50;;
84860;SDS011;75116;42.644;23.274;2024-01-06T17:03:49;6.70;;;3.67;;
84860;SDS011;75116;42.644;23.274;2024-01-06T17:06:15;7.07;;;4.03;;
84860;SDS011;75116;42.644;23.274;2024-01-06T17:08:41;6.55;;;3.22;;
84860;SDS011;75116;42.644;23.274;2024-01-06T17:11:08;10.15;;;8.32;;
84860;SDS011;75116;42.644;23.274;2024-01-06T17:13:33;6.25;;;4.82;;
84860;SDS011;75116;42.644;23.274;2024-01-06T17:15:59;5.55;;;3.65;;
84860;SDS011;75116;42.644;23.274;2024-01-06T17:18:24;6.15;;;3.75;;
84860;SDS011;75116;42.644;23.274;2024-01-06T17:20:50;6.13;;;3.65;;
84860;SDS011;75116;42.644;23.274;2024-01-06T17:23:15;5.07;;;3.25;;
84860;SDS011;75116;42.644;23.274;2024-01-06T17:25:41;3.83;;;2.78;;
84860;SDS011;75116;42.644;23.274;2024-01-06T17:28:06;3.95;;;2.97;;
84860;SDS011;75116;42.644;23.274;2024-01-06T17:30:32;4.00;;;3.10;;
84860;SDS011;75116;42.644;23.274;2024-01-06T17:32:58;5.35;;;2.60;;
84860;SDS011;75116;42.644;23.274;2024-01-06T17:35:24;10.45;;;2.47;;
84860;SDS011;75116;42.644;23.274;2024-01-06T17:37:49;5.10;;;2.83;;
84860;SDS011;75116;42.644;23.274;2024-01-06T17:40:15;4.40;;;2.28;;
84860;SDS011;75116;42.644;23.274;2024-01-06T17:42:42;5.50;;;2.25;;
84860;SDS011;75116;42.644;23.274;2024-01-06T17:45:08;3.78;;;2.70;;
84860;SDS011;75116;42.644;23.274;2024-01-06T17:47:34;4.75;;;2.65;;
84860;SDS011;75116;42.644;23.274;2024-01-06T17:50:02;4.90;;;2.83;;
84860;SDS011;75116;42.644;23.274;2024-01-06T17:52:30;2.60;;;2.05;;
84860;SDS011;75116;42.644;23.274;2024-01-06T17:54:56;6.50;;;3.47;;
84860;SDS011;75116;42.644;23.274;2024-01-06T17:57:22;4.97;;;3.30;;
84860;SDS011;75116;42.644;23.274;2024-01-06T17:59:48;3.97;;;3.00;;
84860;SDS011;75116;42.644;23.274;2024-01-06T18:02:13;5.72;;;3.20;;
84860;SDS011;75116;42.644;23.274;2024-01-06T18:04:40;6.80;;;3.10;;
84860;SDS011;75116;42.644;23.274;2024-01-06T18:07:06;5.22;;;2.92;;
84860;SDS011;75116;42.644;23.274;2024-01-06T18:09:32;7.07;;;4.43;;
84860;SDS011;75116;42.644;23.274;2024-01-06T18:11:59;8.23;;;4.18;;
84860;SDS011;75116;42.644;23.274;2024-01-06T18:14:24;10.20;;;4.50;;
84860;SDS011;75116;42.644;23.274;2024-01-06T18:16:50;7.25;;;2.78;;
84860;SDS011;75116;42.644;23.274;2024-01-06T18:19:15;7.50;;;2.50;;
84860;SDS011;75116;42.644;23.274;2024-01-06T18:21:41;6.78;;;2.47;;
84860;SDS011;75116;42.644;23.274;2024-01-06T18:24:06;4.80;;;2.58;;
84860;SDS011;75116;42.644;23.274;2024-01-06T18:26:33;3.53;;;1.98;;
84860;SDS011;75116;42.644;23.274;2024-01-06T18:28:58;10.88;;;5.68;;
84860;SDS011;75116;42.644;23.274;2024-01-06T18:31:24;15.30;;;7.65;;
84860;SDS011;75116;42.644;23.274;2024-01-06T18:33:50;14.00;;;8.05;;
84860;SDS011;75116;42.644;23.274;2024-01-06T18:36:15;17.85;;;8.02;;
84860;SDS011;75116;42.644;23.274;2024-01-06T18:38:41;17.65;;;8.60;;
84860;SDS011;75116;42.644;23.274;2024-01-06T18:41:07;9.40;;;5.72;;
84860;SDS011;75116;42.644;23.274;2024-01-06T18:43:32;18.48;;;9.70;;
84860;SDS011;75116;42.644;23.274;2024-01-06T18:45:58;20.17;;;11.32;;
84860;SDS011;75116;42.644;23.274;2024-01-06T18:48:24;17.30;;;9.52;;
84860;SDS011;75116;42.644;23.274;2024-01-06T18:50:49;22.23;;;10.63;;
84860;SDS011;75116;42.644;23.274;2024-01-06T18:53:15;21.50;;;10.95;;
84860;SDS011;75116;42.644;23.274;2024-01-06T18:55:40;21.23;;;12.35;;
84860;SDS011;75116;42.644;23.274;2024-01-06T18:58:06;18.25;;;10.00;;
84860;SDS011;75116;42.644;23.274;2024-01-06T19:00:32;20.70;;;9.75;;
84860;SDS011;75116;42.644;23.274;2024-01-06T19:02:58;20.83;;;11.52;;
84860;SDS011;75116;42.644;23.274;2024-01-06T19:05:25;21.33;;;11.38;;
84860;SDS011;75116;42.644;23.274;2024-01-06T19:07:51;20.05;;;10.43;;
84860;SDS011;75116;42.644;23.274;2024-01-06T19:10:17;20.67;;;12.18;;
84860;SDS011;75116;42.644;23.274;2024-01-06T19:12:43;16.60;;;11.15;;
84860;SDS011;75116;42.644;23.274;2024-01-06T19:15:09;10.73;;;6.53;;
84860;SDS011;75116;42.644;23.274;2024-01-06T19:17:34;5.60;;;3.17;;
84860;SDS011;75116;42.644;23.274;2024-01-06T19:20:00;7.25;;;4.03;;
84860;SDS011;75116;42.644;23.274;2024-01-06T19:22:26;5.97;;;3.47;;
84860;SDS011;75116;42.644;23.274;2024-01-06T19:24:51;4.18;;;2.50;;
84860;SDS011;75116;42.644;23.274;2024-01-06T19:27:17;6.53;;;2.22;;
84860;SDS011;75116;42.644;23.274;2024-01-06T19:29:42;3.70;;;3.10;;
84860;SDS011;75116;42.644;23.274;2024-01-06T19:32:11;5.40;;;2.97;;
84860;SDS011;75116;42.644;23.274;2024-01-06T19:34:36;3.08;;;2.60;;
84860;SDS011;75116;42.644;23.274;2024-01-06T19:37:02;6.55;;;3.25;;
84860;SDS011;75116;42.644;23.274;2024-01-06T19:39:28;5.70;;;2.47;;
84860;SDS011;75116;42.644;23.274;2024-01-06T19:41:55;6.70;;;2.60;;
84860;SDS011;75116;42.644;23.274;2024-01-06T19:44:21;3.88;;;2.22;;
84860;SDS011;75116;42.644;23.274;2024-01-06T19:46:47;3.22;;;1.85;;
84860;SDS011;75116;42.644;23.274;2024-01-06T19:49:12;4.30;;;2.20;;
84860;SDS011;75116;42.644;23.274;2024-01-06T19:51:38;6.90;;;3.10;;
84860;SDS011;75116;42.644;23.274;2024-01-06T19:54:06;3.80;;;1.85;;
84860;SDS011;75116;42.644;23.274;2024-01-06T19:56:33;4.60;;;1.52;;
84860;SDS011;75116;42.644;23.274;2024-01-06T19:58:59;2.47;;;1.92;;
84860;SDS011;75116;42.644;23.274;2024-01-06T20:01:24;3.70;;;1.67;;
84860;SDS011;75116;42.644;23.274;2024-01-06T20:03:50;32.22;;;18.95;;
84860;SDS011;75116;42.644;23.274;2024-01-06T20:06:15;9.13;;;6.30;;
84860;SDS011;75116;42.644;23.274;2024-01-06T20:08:41;10.98;;;6.97;;
84860;SDS011;75116;42.644;23.274;2024-01-06T20:11:06;6.43;;;3.65;;
84860;SDS011;75116;42.644;23.274;2024-01-06T20:13:32;7.60;;;4.97;;
84860;SDS011;75116;42.644;23.274;2024-01-06T20:15:58;18.10;;;8.32;;
84860;SDS011;75116;42.644;23.274;2024-01-06T20:18:27;14.82;;;7.43;;
84860;SDS011;75116;42.644;23.274;2024-01-06T20:20:54;24.08;;;12.32;;
84860;SDS011;75116;42.644;23.274;2024-01-06T20:23:20;24.27;;;12.30;;
84860;SDS011;75116;42.644;23.274;2024-01-06T20:25:47;26.10;;;13.50;;
84860;SDS011;75116;42.644;23.274;2024-01-06T20:28:13;22.80;;;12.60;;
84860;SDS011;75116;42.644;23.274;2024-01-06T20:30:39;19.15;;;11.50;;
84860;SDS011;75116;42.644;23.274;2024-01-06T20:33:05;11.57;;;7.65;;
84860;SDS011;75116;42.644;23.274;2024-01-06T20:35:31;9.15;;;5.80;;
84860;SDS011;75116;42.644;23.274;2024-01-06T20:37:58;9.52;;;4.43;;
84860;SDS011;75116;42.644;23.274;2024-01-06T20:40:24;5.85;;;2.90;;
84860;SDS011;75116;42.644;23.274;2024-01-06T20:42:50;4.30;;;3.33;;
84860;SDS011;75116;42.644;23.274;2024-01-06T20:45:16;7.57;;;4.40;;
84860;SDS011;75116;42.644;23.274;2024-01-06T20:47:43;5.90;;;2.38;;
84860;SDS011;75116;42.644;23.274;2024-01-06T20:50:09;3.90;;;3.00;;
84860;SDS011;75116;42.644;23.274;2024-01-06T20:52:35;4.90;;;3.42;;
84860;SDS011;75116;42.644;23.274;2024-01-06T20:55:01;3.40;;;2.75;;
84860;SDS011;75116;42.644;23.274;2024-01-06T20:57:28;3.88;;;2.30;;
84860;SDS011;75116;42.644;23.274;2024-01-06T20:59:54;6.93;;;3.78;;
84860;SDS011;75116;42.644;23.274;2024-01-06T21:02:20;3.90;;;2.20;;
84860;SDS011;75116;42.644;23.274;2024-01-06T21:04:46;5.72;;;2.53;;
84860;SDS011;75116;42.644;23.274;2024-01-06T21:07:12;7.07;;;2.90;;
84860;SDS011;75116;42.644;23.274;2024-01-06T21:09:37;15.75;;;7.28;;
84860;SDS011;75116;42.644;23.274;2024-01-06T21:12:03;21.67;;;10.35;;
84860;SDS011;75116;42.644;23.274;2024-01-06T21:14:29;36.08;;;12.50;;
84860;SDS011;75116;42.644;23.274;2024-01-06T21:16:54;35.10;;;13.02;;
84860;SDS011;75116;42.644;23.274;2024-01-06T21:19:20;39.25;;;13.20;;
84860;SDS011;75116;42.644;23.274;2024-01-06T21:21:47;20.48;;;9.15;;
84860;SDS011;75116;42.644;23.274;2024-01-06T21:24:13;17.23;;;8.07;;
84860;SDS011;75116;42.644;23.274;2024-01-06T21:26:39;24.98;;;10.10;;
84860;SDS011;75116;42.644;23.274;2024-01-06T21:29:04;24.90;;;7.03;;
84860;SDS011;75116;42.644;23.274;2024-01-06T21:31:30;10.82;;;3.60;;
84860;SDS011;75116;42.644;23.274;2024-01-06T21:33:56;2.47;;;1.40;;
84860;SDS011;75116;42.644;23.274;2024-01-06T21:36:21;10.60;;;5.57;;
84860;SDS011;75116;42.644;23.274;2024-01-06T21:38:47;18.73;;;8.10;;
84860;SDS011;75116;42.644;23.274;2024-01-06T21:41:12;15.38;;;6.82;;
84860;SDS011;75116;42.644;23.274;2024-01-06T21:43:38;10.30;;;5.05;;
84860;SDS011;75116;42.644;23.274;2024-01-06T21:46:04;12.15;;;5.93;;
84860;SDS011;75116;42.644;23.274;2024-01-06T21:48:29;13.07;;;7.30;;
84860;SDS011;75116;42.644;23.274;2024-01-06T21:50:55;16.20;;;8.10;;
84860;SDS011;75116;42.644;23.274;2024-01-06T21:53:22;16.80;;;8.50;;
84860;SDS011;75116;42.644;23.274;2024-01-06T21:55:48;11.68;;;8.20;;
84860;SDS011;75116;42.644;23.274;2024-01-06T21:58:14;14.82;;;8.23;;
84860;SDS011;75116;42.644;23.274;2024-01-06T22:00:40;14.10;;;7.90;;
84860;SDS011;75116;42.644;23.274;2024-01-06T22:03:06;5.30;;;3.13;;
84860;SDS011;75116;42.644;23.274;2024-01-06T22:05:32;8.48;;;5.40;;
84860;SDS011;75116;42.644;23.274;2024-01-06T22:07:57;15.02;;;8.50;;
84860;SDS011;75116;42.644;23.274;2024-01-06T22:10:23;15.77;;;9.23;;
84860;SDS011;75116;42.644;23.274;2024-01-06T22:12:51;20.10;;;11.02;;
84860;SDS011;75116;42.644;23.274;2024-01-06T22:15:17;14.55;;;8.68;;
84860;SDS011;75116;42.644;23.274;2024-01-06T22:17:42;19.38;;;9.65;;
84860;SDS011;75116;42.644;23.274;2024-01-06T22:20:08;19.95;;;11.18;;
84860;SDS011;75116;42.644;23.274;2024-01-06T22:22:33;15.75;;;8.50;;
84860;SDS011;75116;42.644;23.274;2024-01-06T22:24:59;14.93;;;9.60;;
84860;SDS011;75116;42.644;23.274;2024-01-06T22:27:24;13.13;;;8.48;;
84860;SDS011;75116;42.644;23.274;2024-01-06T22:29:50;12.07;;;6.28;;
84860;SDS011;75116;42.644;23.274;2024-01-06T22:32:15;10.65;;;5.43;;
84860;SDS011;75116;42.644;23.274;2024-01-06T22:34:41;12.05;;;7.00;;
84860;SDS011;75116;42.644;23.274;2024-01-06T22:37:09;11.73;;;6.78;;
84860;SDS011;75116;42.644;23.274;2024-01-06T22:39:36;9.07;;;5.70;;
84860;SDS011;75116;42.644;23.274;2024-01-06T22:42:06;10.23;;;5.70;;
84860;SDS011;75116;42.644;23.274;2024-01-06T22:44:32;10.15;;;5.60;;
84860;SDS011;75116;42.644;23.274;2024-01-06T22:46:57;7.88;;;4.43;;
84860;SDS011;75116;42.644;23.274;2024-01-06T22:49:23;8.65;;;4.70;;
84860;SDS011;75116;42.644;23.274;2024-01-06T22:51:49;6.25;;;4.20;;
84860;SDS011;75116;42.644;23.274;2024-01-06T22:54:14;4.68;;;3.40;;
84860;SDS011;75116;42.644;23.274;2024-01-06T22:56:39;12.93;;;6.15;;
84860;SDS011;75116;42.644;23.274;2024-01-06T22:59:05;9.85;;;4.93;;
84860;SDS011;75116;42.644;23.274;2024-01-06T23:01:31;14.93;;;6.32;;
84860;SDS011;75116;42.644;23.274;2024-01-06T23:03:56;8.25;;;5.40;;
84860;SDS011;75116;42.644;23.274;2024-01-06T23:06:22;9.38;;;5.32;;
84860;SDS011;75116;42.644;23.274;2024-01-06T23:08:48;12.48;;;7.45;;
84860;SDS011;75116;42.644;23.274;2024-01-06T23:11:13;8.30;;;4.53;;
84860;SDS011;75116;42.644;23.274;2024-01-06T23:13:40;7.38;;;5.47;;
84860;SDS011;75116;42.644;23.274;2024-01-06T23:16:05;11.00;;;5.43;;
84860;SDS011;75116;42.644;23.274;2024-01-06T23:18:31;8.80;;;5.22;;
84860;SDS011;75116;42.644;23.274;2024-01-06T23:20:56;9.95;;;5.68;;
84860;SDS011;75116;42.644;23.274;2024-01-06T23:23:22;8.95;;;5.70;;
84860;SDS011;75116;42.644;23.274;2024-01-06T23:25:49;13.20;;;5.97;;
84860;SDS011;75116;42.644;23.274;2024-01-06T23:28:15;12.52;;;6.93;;
84860;SDS011;75116;42.644;23.274;2024-01-06T23:30:42;10.05;;;6.00;;
84860;SDS011;75116;42.644;23.274;2024-01-06T23:33:08;9.57;;;5.25;;
84860;SDS011;75116;42.644;23.274;2024-01-06T23:35:33;10.30;;;5.95;;
84860;SDS011;75116;42.644;23.274;2024-01-06T23:37:59;11.07;;;7.32;;
84860;SDS011;75116;42.644;23.274;2024-01-06T23:40:24;12.38;;;7.05;;
84860;SDS011;75116;42.644;23.274;2024-01-06T23:42:50;12.68;;;6.93;;
84860;SDS011;75116;42.644;23.274;2024-01-06T23:45:15;11.38;;;7.70;;
84860;SDS011;75116;42.644;23.274;2024-01-06T23:47:41;15.55;;;7.28;;
84860;SDS011;75116;42.644;23.274;2024-01-06T23:50:07;11.50;;;6.32;;
84860;SDS011;75116;42.644;23.274;2024-01-06T23:52:32;19.30;;;8.23;;
84860;SDS011;75116;42.644;23.274;2024-01-06T23:54:58;11.95;;;7.03;;
84860;SDS011;75116;42.644;23.274;2024-01-06T23:57:23;14.55;;;7.55;;
84860;SDS011;75116;42.644;23.274;2024-01-06T23:59:49;14.25;;;6.70;;
